sensor_id;sensor_type;location;lat;lon;timestamp;P1;durP1;ratioP1;P2;durP2;ratioP2
35444;SDS011;21562;49.476;6.086;2023-05-09T00:00:02;8.68;;;4.97;;
35444;SDS011;21562;49.476;6.086;2023-05-09T00:02:30;7.95;;;5.40;;
35444;SDS011;21562;49.476;6.086;2023-05-09T00:04:58;10.32;;;6.38;;
35444;SDS011;21562;49.476;6.086;2023-05-09T00:07:25;9.82;;;5.80;;
35444;SDS011;21562;49.476;6.086;2023-05-09T00:09:50;8.85;;;5.75;;
35444;SDS011;21562;49.476;6.086;2023-05-09T00:12:16;9.27;;;5.55;;
35444;SDS011;21562;49.476;6.086;2023-05-09T00:14:41;10.88;;;6.55;;
35444;SDS011;21562;49.476;6.086;2023-05-09T00:17:09;9.85;;;6.25;;
35444;SDS011;21562;49.476;6.086;2023-05-09T00:19:38;8.07;;;6.15;;
35444;SDS011;21562;49.476;6.086;2023-05-09T00:22:04;11.02;;;7.03;;
35444;SDS011;21562;49.476;6.086;2023-05-09T00:24:29;9.43;;;6.53;;
35444;SDS011;21562;49.476;6.086;2023-05-09T00:26:55;11.75;;;7.30;;
35444;SDS011;21562;49.476;6.086;2023-05-09T00:29:21;10.57;;;7.00;;
35444;SDS011;21562;49.476;6.086;2023-05-09T00:31:46;7.57;;;5.75;;
35444;SDS011;21562;49.476;6.086;2023-05-09T00:34:12;10.38;;;6.40;;
35444;SDS011;21562;49.476;6.086;2023-05-09T00:36:37;9.27;;;7.03;;
35444;SDS011;21562;49.476;6.086;2023-05-09T00:39:03;8.65;;;6.50;;
35444;SDS011;21562;49.476;6.086;2023-05-09T00:41:29;7.22;;;5.63;;
35444;SDS011;21562;49.476;6.086;2023-05-09T00:43:55;9.38;;;5.60;;
35444;SDS011;21562;49.476;6.086;2023-05-09T00:46:20;7.43;;;5.40;;
35444;SDS011;21562;49.476;6.086;2023-05-09T00:48:46;8.15;;;6.18;;
35444;SDS011;21562;49.476;6.086;2023-05-09T00:51:12;9.77;;;6.95;;
35444;SDS011;21562;49.476;6.086;2023-05-09T00:53:38;7.10;;;6.40;;
35444;SDS011;21562;49.476;6.086;2023-05-09T00:56:04;8.45;;;6.40;;
35444;SDS011;21562;49.476;6.086;2023-05-09T00:58:31;10.25;;;7.13;;
35444;SDS011;21562;49.476;6.086;2023-05-09T01:00:56;9.38;;;6.95;;
35444;SDS011;21562;49.476;6.086;2023-05-09T01:03:23;8.18;;;6.43;;
35444;SDS011;21562;49.476;6.086;2023-05-09T01:05:57;8.40;;;6.13;;
35444;SDS011;21562;49.476;6.086;2023-05-09T01:11:09;9.40;;;6.80;;
35444;SDS011;21562;49.476;6.086;2023-05-09T01:13:51;11.80;;;6.90;;
35444;SDS011;21562;49.476;6.086;2023-05-09T01:16:54;9.60;;;6.63;;
35444;SDS011;21562;49.476;6.086;2023-05-09T01:22:35;10.27;;;7.22;;
35444;SDS011;21562;49.476;6.086;2023-05-09T01:25:11;13.32;;;6.57;;
35444;SDS011;21562;49.476;6.086;2023-05-09T01:31:16;9.65;;;6.80;;
35444;SDS011;21562;49.476;6.086;2023-05-09T01:33:42;10.60;;;7.20;;
35444;SDS011;21562;49.476;6.086;2023-05-09T01:36:14;9.25;;;6.82;;
35444;SDS011;21562;49.476;6.086;2023-05-09T01:38:43;9.27;;;7.25;;
35444;SDS011;21562;49.476;6.086;2023-05-09T01:41:10;11.05;;;6.75;;
35444;SDS011;21562;49.476;6.086;2023-05-09T01:43:39;7.82;;;6.32;;
35444;SDS011;21562;49.476;6.086;2023-05-09T01:46:07;8.20;;;5.60;;
35444;SDS011;21562;49.476;6.086;2023-05-09T01:48:34;8.35;;;5.95;;
35444;SDS011;21562;49.476;6.086;2023-05-09T01:51:01;12.02;;;6.55;;
35444;SDS011;21562;49.476;6.086;2023-05-09T01:53:29;8.73;;;6.20;;
35444;SDS011;21562;49.476;6.086;2023-05-09T01:55:56;12.50;;;7.18;;
35444;SDS011;21562;49.476;6.086;2023-05-09T01:58:23;10.75;;;7.13;;
35444;SDS011;21562;49.476;6.086;2023-05-09T02:00:50;8.63;;;6.38;;
35444;SDS011;21562;49.476;6.086;2023-05-09T02:03:17;10.35;;;6.43;;
35444;SDS011;21562;49.476;6.086;2023-05-09T02:05:43;10.27;;;6.63;;
35444;SDS011;21562;49.476;6.086;2023-05-09T02:08:11;14.18;;;7.05;;
35444;SDS011;21562;49.476;6.086;2023-05-09T02:10:38;10.55;;;6.15;;
35444;SDS011;21562;49.476;6.086;2023-05-09T02:13:04;9.32;;;5.55;;
35444;SDS011;21562;49.476;6.086;2023-05-09T02:15:30;7.85;;;5.70;;
35444;SDS011;21562;49.476;6.086;2023-05-09T02:17:56;8.35;;;5.45;;
35444;SDS011;21562;49.476;6.086;2023-05-09T02:20:22;8.07;;;6.32;;
35444;SDS011;21562;49.476;6.086;2023-05-09T02:22:47;7.70;;;5.43;;
35444;SDS011;21562;49.476;6.086;2023-05-09T02:25:13;8.48;;;6.65;;
35444;SDS011;21562;49.476;6.086;2023-05-09T02:27:39;7.10;;;5.80;;
35444;SDS011;21562;49.476;6.086;2023-05-09T02:30:07;10.70;;;5.90;;
35444;SDS011;21562;49.476;6.086;2023-05-09T02:32:37;10.38;;;6.82;;
35444;SDS011;21562;49.476;6.086;2023-05-09T02:35:03;10.50;;;6.50;;
35444;SDS011;21562;49.476;6.086;2023-05-09T02:37:31;14.00;;;7.07;;
35444;SDS011;21562;49.476;6.086;2023-05-09T02:39:57;7.90;;;6.35;;
35444;SDS011;21562;49.476;6.086;2023-05-09T02:42:24;8.90;;;6.53;;
35444;SDS011;21562;49.476;6.086;2023-05-09T02:44:53;9.70;;;7.18;;
35444;SDS011;21562;49.476;6.086;2023-05-09T02:47:19;13.02;;;6.95;;
35444;SDS011;21562;49.476;6.086;2023-05-09T02:49:45;10.63;;;6.18;;
35444;SDS011;21562;49.476;6.086;2023-05-09T02:52:11;12.27;;;7.35;;
35444;SDS011;21562;49.476;6.086;2023-05-09T02:54:37;12.35;;;6.80;;
35444;SDS011;21562;49.476;6.086;2023-05-09T02:57:03;10.30;;;7.63;;
35444;SDS011;21562;49.476;6.086;2023-05-09T02:59:30;12.63;;;7.85;;
35444;SDS011;21562;49.476;6.086;2023-05-09T03:01:56;11.75;;;8.27;;
35444;SDS011;21562;49.476;6.086;2023-05-09T03:04:22;15.40;;;8.00;;
35444;SDS011;21562;49.476;6.086;2023-05-09T03:06:47;10.77;;;7.65;;
35444;SDS011;21562;49.476;6.086;2023-05-09T03:09:13;13.07;;;7.88;;
35444;SDS011;21562;49.476;6.086;2023-05-09T03:11:39;11.82;;;8.13;;
35444;SDS011;21562;49.476;6.086;2023-05-09T03:14:05;14.27;;;8.88;;
35444;SDS011;21562;49.476;6.086;2023-05-09T03:16:32;14.32;;;9.38;;
35444;SDS011;21562;49.476;6.086;2023-05-09T03:18:58;15.65;;;9.65;;
35444;SDS011;21562;49.476;6.086;2023-05-09T03:21:24;12.15;;;9.20;;
35444;SDS011;21562;49.476;6.086;2023-05-09T03:23:50;15.27;;;9.02;;
35444;SDS011;21562;49.476;6.086;2023-05-09T03:26:15;13.30;;;9.13;;
35444;SDS011;21562;49.476;6.086;2023-05-09T03:28:41;13.18;;;8.45;;
35444;SDS011;21562;49.476;6.086;2023-05-09T03:31:07;10.63;;;8.63;;
35444;SDS011;21562;49.476;6.086;2023-05-09T03:33:32;11.40;;;8.15;;
35444;SDS011;21562;49.476;6.086;2023-05-09T03:35:58;10.52;;;8.57;;
35444;SDS011;21562;49.476;6.086;2023-05-09T03:38:23;11.75;;;8.60;;
35444;SDS011;21562;49.476;6.086;2023-05-09T03:40:49;12.52;;;9.40;;
35444;SDS011;21562;49.476;6.086;2023-05-09T03:43:17;10.05;;;7.47;;
35444;SDS011;21562;49.476;6.086;2023-05-09T03:45:43;12.13;;;9.32;;
35444;SDS011;21562;49.476;6.086;2023-05-09T03:48:09;12.30;;;9.48;;
35444;SDS011;21562;49.476;6.086;2023-05-09T03:50:35;11.98;;;8.85;;
35444;SDS011;21562;49.476;6.086;2023-05-09T03:53:01;12.45;;;8.77;;
35444;SDS011;21562;49.476;6.086;2023-05-09T03:55:27;11.27;;;8.23;;
35444;SDS011;21562;49.476;6.086;2023-05-09T03:57:53;11.55;;;8.73;;
35444;SDS011;21562;49.476;6.086;2023-05-09T04:00:19;18.25;;;9.02;;
35444;SDS011;21562;49.476;6.086;2023-05-09T04:02:46;12.57;;;9.80;;
35444;SDS011;21562;49.476;6.086;2023-05-09T04:05:13;11.75;;;8.90;;
35444;SDS011;21562;49.476;6.086;2023-05-09T04:07:39;14.02;;;8.98;;
35444;SDS011;21562;49.476;6.086;2023-05-09T04:10:06;9.05;;;7.30;;
35444;SDS011;21562;49.476;6.086;2023-05-09T04:12:32;12.23;;;9.18;;
35444;SDS011;21562;49.476;6.086;2023-05-09T04:14:58;12.95;;;9.65;;
35444;SDS011;21562;49.476;6.086;2023-05-09T04:17:24;14.48;;;8.57;;
35444;SDS011;21562;49.476;6.086;2023-05-09T04:19:49;15.00;;;10.15;;
35444;SDS011;21562;49.476;6.086;2023-05-09T04:22:15;13.25;;;9.38;;
35444;SDS011;21562;49.476;6.086;2023-05-09T04:24:41;12.00;;;8.80;;
35444;SDS011;21562;49.476;6.086;2023-05-09T04:27:06;12.07;;;8.70;;
35444;SDS011;21562;49.476;6.086;2023-05-09T04:29:32;10.82;;;9.00;;
35444;SDS011;21562;49.476;6.086;2023-05-09T04:31:59;10.45;;;7.88;;
35444;SDS011;21562;49.476;6.086;2023-05-09T04:34:25;14.35;;;8.77;;
35444;SDS011;21562;49.476;6.086;2023-05-09T04:36:51;12.50;;;7.95;;
35444;SDS011;21562;49.476;6.086;2023-05-09T04:39:17;14.57;;;8.63;;
35444;SDS011;21562;49.476;6.086;2023-05-09T04:41:43;10.32;;;8.00;;
35444;SDS011;21562;49.476;6.086;2023-05-09T04:44:11;12.60;;;9.05;;
35444;SDS011;21562;49.476;6.086;2023-05-09T04:46:37;10.23;;;8.00;;
35444;SDS011;21562;49.476;6.086;2023-05-09T04:49:03;10.57;;;7.97;;
35444;SDS011;21562;49.476;6.086;2023-05-09T04:51:29;7.85;;;6.70;;
35444;SDS011;21562;49.476;6.086;2023-05-09T04:53:54;10.90;;;7.68;;
35444;SDS011;21562;49.476;6.086;2023-05-09T04:56:20;10.68;;;8.32;;
35444;SDS011;21562;49.476;6.086;2023-05-09T04:58:46;9.73;;;6.72;;
35444;SDS011;21562;49.476;6.086;2023-05-09T05:01:12;8.75;;;6.68;;
35444;SDS011;21562;49.476;6.086;2023-05-09T05:03:38;10.52;;;7.80;;
35444;SDS011;21562;49.476;6.086;2023-05-09T05:06:04;11.07;;;8.35;;
35444;SDS011;21562;49.476;6.086;2023-05-09T05:08:30;10.70;;;8.38;;
35444;SDS011;21562;49.476;6.086;2023-05-09T05:10:56;12.27;;;8.75;;
35444;SDS011;21562;49.476;6.086;2023-05-09T05:13:21;13.93;;;8.98;;
35444;SDS011;21562;49.476;6.086;2023-05-09T05:15:48;12.25;;;8.70;;
35444;SDS011;21562;49.476;6.086;2023-05-09T05:18:13;12.40;;;9.13;;
35444;SDS011;21562;49.476;6.086;2023-05-09T05:20:39;12.88;;;8.88;;
35444;SDS011;21562;49.476;6.086;2023-05-09T05:23:05;16.08;;;9.48;;
35444;SDS011;21562;49.476;6.086;2023-05-09T05:25:31;10.02;;;7.75;;
35444;SDS011;21562;49.476;6.086;2023-05-09T05:27:57;10.30;;;8.20;;
35444;SDS011;21562;49.476;6.086;2023-05-09T05:30:23;12.27;;;9.27;;
35444;SDS011;21562;49.476;6.086;2023-05-09T05:32:48;11.75;;;8.85;;
35444;SDS011;21562;49.476;6.086;2023-05-09T05:35:14;11.70;;;8.75;;
35444;SDS011;21562;49.476;6.086;2023-05-09T05:37:40;14.68;;;8.68;;
35444;SDS011;21562;49.476;6.086;2023-05-09T05:40:07;10.23;;;7.93;;
35444;SDS011;21562;49.476;6.086;2023-05-09T05:42:33;15.43;;;9.57;;
35444;SDS011;21562;49.476;6.086;2023-05-09T05:44:59;12.48;;;8.60;;
35444;SDS011;21562;49.476;6.086;2023-05-09T05:47:31;11.43;;;7.82;;
35444;SDS011;21562;49.476;6.086;2023-05-09T05:49:57;12.57;;;8.68;;
35444;SDS011;21562;49.476;6.086;2023-05-09T05:52:24;12.93;;;8.38;;
35444;SDS011;21562;49.476;6.086;2023-05-09T05:54:51;10.73;;;7.45;;
35444;SDS011;21562;49.476;6.086;2023-05-09T05:57:17;13.95;;;9.57;;
35444;SDS011;21562;49.476;6.086;2023-05-09T05:59:43;12.48;;;8.38;;
35444;SDS011;21562;49.476;6.086;2023-05-09T06:02:11;12.77;;;8.68;;
35444;SDS011;21562;49.476;6.086;2023-05-09T06:04:37;12.02;;;8.88;;
35444;SDS011;21562;49.476;6.086;2023-05-09T06:07:02;10.63;;;8.65;;
35444;SDS011;21562;49.476;6.086;2023-05-09T06:09:28;13.00;;;8.27;;
35444;SDS011;21562;49.476;6.086;2023-05-09T06:11:54;11.82;;;8.07;;
35444;SDS011;21562;49.476;6.086;2023-05-09T06:14:19;11.70;;;8.45;;
35444;SDS011;21562;49.476;6.086;2023-05-09T06:16:45;13.15;;;7.45;;
35444;SDS011;21562;49.476;6.086;2023-05-09T06:19:10;13.30;;;7.95;;
35444;SDS011;21562;49.476;6.086;2023-05-09T06:21:36;13.02;;;7.15;;
35444;SDS011;21562;49.476;6.086;2023-05-09T06:24:02;13.07;;;7.68;;
35444;SDS011;21562;49.476;6.086;2023-05-09T06:26:28;12.77;;;7.72;;
35444;SDS011;21562;49.476;6.086;2023-05-09T06:28:53;11.35;;;7.28;;
35444;SDS011;21562;49.476;6.086;2023-05-09T06:31:20;12.68;;;8.05;;
35444;SDS011;21562;49.476;6.086;2023-05-09T06:33:45;12.57;;;8.30;;
35444;SDS011;21562;49.476;6.086;2023-05-09T06:36:11;12.23;;;6.65;;
35444;SDS011;21562;49.476;6.086;2023-05-09T06:38:36;13.90;;;5.15;;
35444;SDS011;21562;49.476;6.086;2023-05-09T06:41:02;10.82;;;5.65;;
35444;SDS011;21562;49.476;6.086;2023-05-09T06:43:28;16.38;;;5.22;;
35444;SDS011;21562;49.476;6.086;2023-05-09T06:45:56;13.00;;;5.43;;
35444;SDS011;21562;49.476;6.086;2023-05-09T06:48:24;8.25;;;4.82;;
35444;SDS011;21562;49.476;6.086;2023-05-09T06:50:50;7.97;;;5.30;;
35444;SDS011;21562;49.476;6.086;2023-05-09T06:53:16;8.20;;;5.82;;
35444;SDS011;21562;49.476;6.086;2023-05-09T06:55:42;12.02;;;6.90;;
35444;SDS011;21562;49.476;6.086;2023-05-09T06:58:08;10.10;;;7.35;;
35444;SDS011;21562;49.476;6.086;2023-05-09T07:00:35;10.23;;;7.60;;
35444;SDS011;21562;49.476;6.086;2023-05-09T07:03:00;10.93;;;7.35;;
35444;SDS011;21562;49.476;6.086;2023-05-09T07:05:26;11.20;;;8.02;;
35444;SDS011;21562;49.476;6.086;2023-05-09T07:07:52;10.35;;;8.02;;
35444;SDS011;21562;49.476;6.086;2023-05-09T07:10:19;10.18;;;8.35;;
35444;SDS011;21562;49.476;6.086;2023-05-09T07:12:46;10.43;;;8.32;;
35444;SDS011;21562;49.476;6.086;2023-05-09T07:15:12;12.98;;;8.60;;
35444;SDS011;21562;49.476;6.086;2023-05-09T07:17:42;15.90;;;8.68;;
35444;SDS011;21562;49.476;6.086;2023-05-09T07:30:34;13.80;;;9.63;;
35444;SDS011;21562;49.476;6.086;2023-05-09T07:33:00;16.02;;;9.73;;
35444;SDS011;21562;49.476;6.086;2023-05-09T07:35:25;16.65;;;10.48;;
35444;SDS011;21562;49.476;6.086;2023-05-09T07:38:03;16.15;;;9.70;;
35444;SDS011;21562;49.476;6.086;2023-05-09T07:41:39;14.57;;;9.60;;
35444;SDS011;21562;49.476;6.086;2023-05-09T07:45:10;14.07;;;9.63;;
35444;SDS011;21562;49.476;6.086;2023-05-09T07:47:42;15.43;;;10.93;;
35444;SDS011;21562;49.476;6.086;2023-05-09T07:50:07;16.98;;;10.45;;
35444;SDS011;21562;49.476;6.086;2023-05-09T07:52:37;13.75;;;10.45;;
35444;SDS011;21562;49.476;6.086;2023-05-09T07:55:02;17.38;;;11.00;;
35444;SDS011;21562;49.476;6.086;2023-05-09T07:57:28;17.60;;;11.45;;
35444;SDS011;21562;49.476;6.086;2023-05-09T07:59:56;19.73;;;11.90;;
35444;SDS011;21562;49.476;6.086;2023-05-09T08:02:21;22.08;;;12.00;;
35444;SDS011;21562;49.476;6.086;2023-05-09T08:04:47;17.35;;;11.02;;
35444;SDS011;21562;49.476;6.086;2023-05-09T08:07:22;18.42;;;10.00;;
35444;SDS011;21562;49.476;6.086;2023-05-09T08:10:45;14.10;;;9.75;;
35444;SDS011;21562;49.476;6.086;2023-05-09T08:13:13;15.60;;;10.65;;
35444;SDS011;21562;49.476;6.086;2023-05-09T08:15:39;19.92;;;7.95;;
35444;SDS011;21562;49.476;6.086;2023-05-09T08:18:05;12.35;;;5.90;;
35444;SDS011;21562;49.476;6.086;2023-05-09T08:20:30;12.40;;;7.55;;
35444;SDS011;21562;49.476;6.086;2023-05-09T08:22:56;17.05;;;8.52;;
35444;SDS011;21562;49.476;6.086;2023-05-09T08:25:22;15.55;;;5.20;;
35444;SDS011;21562;49.476;6.086;2023-05-09T08:27:47;9.30;;;5.95;;
35444;SDS011;21562;49.476;6.086;2023-05-09T08:30:13;16.35;;;9.95;;
35444;SDS011;21562;49.476;6.086;2023-05-09T08:32:39;19.77;;;10.20;;
35444;SDS011;21562;49.476;6.086;2023-05-09T08:35:05;19.33;;;11.40;;
35444;SDS011;21562;49.476;6.086;2023-05-09T08:37:32;14.55;;;11.23;;
35444;SDS011;21562;49.476;6.086;2023-05-09T08:39:59;21.45;;;12.55;;
35444;SDS011;21562;49.476;6.086;2023-05-09T08:42:25;17.60;;;11.63;;
35444;SDS011;21562;49.476;6.086;2023-05-09T08:44:53;15.77;;;11.25;;
35444;SDS011;21562;49.476;6.086;2023-05-09T08:47:19;17.75;;;10.35;;
35444;SDS011;21562;49.476;6.086;2023-05-09T08:49:51;12.60;;;9.15;;
35444;SDS011;21562;49.476;6.086;2023-05-09T08:52:17;11.93;;;8.20;;
35444;SDS011;21562;49.476;6.086;2023-05-09T08:54:44;10.93;;;8.40;;
35444;SDS011;21562;49.476;6.086;2023-05-09T08:57:10;12.07;;;7.30;;
35444;SDS011;21562;49.476;6.086;2023-05-09T08:59:38;9.90;;;7.13;;
35444;SDS011;21562;49.476;6.086;2023-05-09T09:02:06;8.88;;;6.57;;
35444;SDS011;21562;49.476;6.086;2023-05-09T09:04:32;12.27;;;7.82;;
35444;SDS011;21562;49.476;6.086;2023-05-09T09:06:57;9.38;;;6.03;;
35444;SDS011;21562;49.476;6.086;2023-05-09T09:09:24;10.00;;;6.03;;
35444;SDS011;21562;49.476;6.086;2023-05-09T09:11:51;15.43;;;6.20;;
35444;SDS011;21562;49.476;6.086;2023-05-09T09:14:19;12.38;;;6.55;;
35444;SDS011;21562;49.476;6.086;2023-05-09T09:16:49;9.70;;;6.03;;
35444;SDS011;21562;49.476;6.086;2023-05-09T09:19:16;7.80;;;4.95;;
35444;SDS011;21562;49.476;6.086;2023-05-09T09:21:43;7.57;;;5.30;;
35444;SDS011;21562;49.476;6.086;2023-05-09T09:24:12;9.70;;;5.45;;
35444;SDS011;21562;49.476;6.086;2023-05-09T09:26:47;11.32;;;5.90;;
35444;SDS011;21562;49.476;6.086;2023-05-09T09:29:14;8.82;;;5.78;;
35444;SDS011;21562;49.476;6.086;2023-05-09T09:31:44;8.40;;;5.28;;
35444;SDS011;21562;49.476;6.086;2023-05-09T09:34:11;10.93;;;6.00;;
35444;SDS011;21562;49.476;6.086;2023-05-09T09:36:38;16.10;;;6.75;;
35444;SDS011;21562;49.476;6.086;2023-05-09T09:39:04;10.52;;;7.40;;
35444;SDS011;21562;49.476;6.086;2023-05-09T09:41:31;13.68;;;6.72;;
35444;SDS011;21562;49.476;6.086;2023-05-09T09:44:07;10.63;;;6.90;;
35444;SDS011;21562;49.476;6.086;2023-05-09T09:46:50;11.35;;;6.85;;
35444;SDS011;21562;49.476;6.086;2023-05-09T09:49:18;14.10;;;7.55;;
35444;SDS011;21562;49.476;6.086;2023-05-09T09:51:57;11.68;;;7.20;;
35444;SDS011;21562;49.476;6.086;2023-05-09T09:54:26;13.50;;;7.30;;
35444;SDS011;21562;49.476;6.086;2023-05-09T09:56:53;13.55;;;8.18;;
35444;SDS011;21562;49.476;6.086;2023-05-09T09:59:19;14.48;;;6.07;;
35444;SDS011;21562;49.476;6.086;2023-05-09T10:04:36;8.95;;;5.32;;
35444;SDS011;21562;49.476;6.086;2023-05-09T10:07:03;7.63;;;4.32;;
35444;SDS011;21562;49.476;6.086;2023-05-09T10:09:31;13.38;;;4.32;;
35444;SDS011;21562;49.476;6.086;2023-05-09T10:12:01;7.55;;;3.83;;
35444;SDS011;21562;49.476;6.086;2023-05-09T10:14:29;7.10;;;3.88;;
35444;SDS011;21562;49.476;6.086;2023-05-09T10:16:56;5.68;;;4.13;;
35444;SDS011;21562;49.476;6.086;2023-05-09T10:19:22;8.93;;;4.07;;
35444;SDS011;21562;49.476;6.086;2023-05-09T10:21:54;5.97;;;3.95;;
35444;SDS011;21562;49.476;6.086;2023-05-09T10:24:26;11.73;;;4.78;;
35444;SDS011;21562;49.476;6.086;2023-05-09T10:26:58;7.35;;;3.97;;
35444;SDS011;21562;49.476;6.086;2023-05-09T10:29:28;6.40;;;3.88;;
35444;SDS011;21562;49.476;6.086;2023-05-09T10:31:58;9.60;;;5.13;;
35444;SDS011;21562;49.476;6.086;2023-05-09T10:34:26;8.57;;;3.45;;
35444;SDS011;21562;49.476;6.086;2023-05-09T10:36:55;8.52;;;4.05;;
35444;SDS011;21562;49.476;6.086;2023-05-09T10:39:24;7.20;;;3.33;;
35444;SDS011;21562;49.476;6.086;2023-05-09T10:41:51;6.90;;;4.20;;
35444;SDS011;21562;49.476;6.086;2023-05-09T10:44:18;7.63;;;4.43;;
35444;SDS011;21562;49.476;6.086;2023-05-09T10:46:45;6.75;;;3.38;;
35444;SDS011;21562;49.476;6.086;2023-05-09T10:49:11;4.70;;;3.08;;
35444;SDS011;21562;49.476;6.086;2023-05-09T10:51:37;4.53;;;3.47;;
35444;SDS011;21562;49.476;6.086;2023-05-09T10:54:12;4.65;;;3.03;;
35444;SDS011;21562;49.476;6.086;2023-05-09T10:56:39;5.20;;;3.28;;
35444;SDS011;21562;49.476;6.086;2023-05-09T10:59:04;5.03;;;3.30;;
35444;SDS011;21562;49.476;6.086;2023-05-09T11:01:32;4.60;;;3.20;;
35444;SDS011;21562;49.476;6.086;2023-05-09T11:03:59;7.68;;;3.75;;
35444;SDS011;21562;49.476;6.086;2023-05-09T11:06:46;9.55;;;4.30;;
35444;SDS011;21562;49.476;6.086;2023-05-09T11:09:21;7.43;;;3.45;;
35444;SDS011;21562;49.476;6.086;2023-05-09T11:17:02;9.63;;;2.80;;
35444;SDS011;21562;49.476;6.086;2023-05-09T11:19:35;6.28;;;2.90;;
35444;SDS011;21562;49.476;6.086;2023-05-09T11:22:05;6.35;;;3.05;;
35444;SDS011;21562;49.476;6.086;2023-05-09T11:25:01;4.20;;;2.50;;
35444;SDS011;21562;49.476;6.086;2023-05-09T11:27:46;6.45;;;2.70;;
35444;SDS011;21562;49.476;6.086;2023-05-09T11:30:14;4.13;;;3.33;;
35444;SDS011;21562;49.476;6.086;2023-05-09T11:32:51;3.58;;;2.88;;
35444;SDS011;21562;49.476;6.086;2023-05-09T11:35:23;7.00;;;3.20;;
35444;SDS011;21562;49.476;6.086;2023-05-09T11:40:25;6.30;;;3.15;;
35444;SDS011;21562;49.476;6.086;2023-05-09T11:42:52;6.88;;;2.95;;
35444;SDS011;21562;49.476;6.086;2023-05-09T11:45:20;4.80;;;2.85;;
35444;SDS011;21562;49.476;6.086;2023-05-09T11:47:48;6.00;;;2.72;;
35444;SDS011;21562;49.476;6.086;2023-05-09T11:50:16;5.00;;;2.92;;
35444;SDS011;21562;49.476;6.086;2023-05-09T11:52:43;6.55;;;2.70;;
35444;SDS011;21562;49.476;6.086;2023-05-09T11:55:14;5.65;;;2.70;;
35444;SDS011;21562;49.476;6.086;2023-05-09T12:00:06;6.82;;;3.13;;
35444;SDS011;21562;49.476;6.086;2023-05-09T12:02:34;5.03;;;2.97;;
35444;SDS011;21562;49.476;6.086;2023-05-09T12:05:08;5.53;;;3.35;;
35444;SDS011;21562;49.476;6.086;2023-05-09T12:07:38;3.72;;;3.00;;
35444;SDS011;21562;49.476;6.086;2023-05-09T12:10:07;7.43;;;3.38;;
35444;SDS011;21562;49.476;6.086;2023-05-09T12:12:41;5.90;;;3.83;;
35444;SDS011;21562;49.476;6.086;2023-05-09T12:15:08;6.20;;;4.10;;
35444;SDS011;21562;49.476;6.086;2023-05-09T12:17:35;4.78;;;3.50;;
35444;SDS011;21562;49.476;6.086;2023-05-09T12:20:01;11.77;;;3.90;;
35444;SDS011;21562;49.476;6.086;2023-05-09T12:22:29;5.43;;;3.70;;
35444;SDS011;21562;49.476;6.086;2023-05-09T12:24:59;6.18;;;4.05;;
35444;SDS011;21562;49.476;6.086;2023-05-09T12:27:26;5.70;;;4.70;;
35444;SDS011;21562;49.476;6.086;2023-05-09T12:29:53;6.28;;;4.03;;
35444;SDS011;21562;49.476;6.086;2023-05-09T12:32:19;10.95;;;4.90;;
35444;SDS011;21562;49.476;6.086;2023-05-09T12:34:45;4.50;;;3.58;;
35444;SDS011;21562;49.476;6.086;2023-05-09T12:37:16;6.75;;;3.92;;
35444;SDS011;21562;49.476;6.086;2023-05-09T12:40:28;6.82;;;3.47;;
35444;SDS011;21562;49.476;6.086;2023-05-09T12:42:32;6.20;;;3.85;;
35444;SDS011;21562;49.476;6.086;2023-05-09T12:44:59;3.28;;;2.88;;
35444;SDS011;21562;49.476;6.086;2023-05-09T12:47:26;3.08;;;2.40;;
35444;SDS011;21562;49.476;6.086;2023-05-09T12:49:56;8.32;;;2.47;;
35444;SDS011;21562;49.476;6.086;2023-05-09T12:52:32;7.15;;;2.45;;
35444;SDS011;21562;49.476;6.086;2023-05-09T12:55:03;3.33;;;2.05;;
35444;SDS011;21562;49.476;6.086;2023-05-09T12:57:36;3.35;;;2.35;;
35444;SDS011;21562;49.476;6.086;2023-05-09T13:00:04;4.35;;;2.70;;
35444;SDS011;21562;49.476;6.086;2023-05-09T13:02:37;7.43;;;2.67;;
35444;SDS011;21562;49.476;6.086;2023-05-09T13:10:09;3.10;;;2.42;;
35444;SDS011;21562;49.476;6.086;2023-05-09T13:12:36;3.03;;;2.72;;
35444;SDS011;21562;49.476;6.086;2023-05-09T13:15:03;5.55;;;3.22;;
35444;SDS011;21562;49.476;6.086;2023-05-09T13:17:29;6.07;;;3.35;;
35444;SDS011;21562;49.476;6.086;2023-05-09T13:19:54;6.38;;;3.90;;
35444;SDS011;21562;49.476;6.086;2023-05-09T13:22:20;4.32;;;2.38;;
35444;SDS011;21562;49.476;6.086;2023-05-09T13:24:46;3.13;;;2.42;;
35444;SDS011;21562;49.476;6.086;2023-05-09T13:27:11;2.72;;;2.38;;
35444;SDS011;21562;49.476;6.086;2023-05-09T13:29:37;2.70;;;2.25;;
35444;SDS011;21562;49.476;6.086;2023-05-09T13:32:03;3.70;;;2.63;;
35444;SDS011;21562;49.476;6.086;2023-05-09T13:34:28;6.97;;;2.83;;
35444;SDS011;21562;49.476;6.086;2023-05-09T13:36:54;5.32;;;2.40;;
35444;SDS011;21562;49.476;6.086;2023-05-09T13:39:20;3.13;;;2.25;;
35444;SDS011;21562;49.476;6.086;2023-05-09T13:41:45;2.92;;;2.10;;
35444;SDS011;21562;49.476;6.086;2023-05-09T13:44:12;2.70;;;2.05;;
35444;SDS011;21562;49.476;6.086;2023-05-09T13:46:38;4.25;;;2.13;;
35444;SDS011;21562;49.476;6.086;2023-05-09T13:49:04;5.85;;;1.85;;
35444;SDS011;21562;49.476;6.086;2023-05-09T13:51:29;4.40;;;2.13;;
35444;SDS011;21562;49.476;6.086;2023-05-09T13:53:56;4.05;;;2.00;;
35444;SDS011;21562;49.476;6.086;2023-05-09T13:56:22;2.75;;;2.38;;
35444;SDS011;21562;49.476;6.086;2023-05-09T13:58:48;5.13;;;2.10;;
35444;SDS011;21562;49.476;6.086;2023-05-09T14:01:13;4.35;;;2.38;;
35444;SDS011;21562;49.476;6.086;2023-05-09T14:03:40;4.50;;;2.10;;
35444;SDS011;21562;49.476;6.086;2023-05-09T14:06:05;3.40;;;2.20;;
35444;SDS011;21562;49.476;6.086;2023-05-09T14:08:33;2.10;;;1.90;;
35444;SDS011;21562;49.476;6.086;2023-05-09T14:10:59;2.85;;;2.03;;
35444;SDS011;21562;49.476;6.086;2023-05-09T14:13:25;3.38;;;1.15;;
35444;SDS011;21562;49.476;6.086;2023-05-09T14:15:50;3.42;;;0.80;;
35444;SDS011;21562;49.476;6.086;2023-05-09T14:18:16;2.35;;;0.60;;
35444;SDS011;21562;49.476;6.086;2023-05-09T14:20:42;1.50;;;0.30;;
35444;SDS011;21562;49.476;6.086;2023-05-09T14:23:08;0.35;;;0.20;;
35444;SDS011;21562;49.476;6.086;2023-05-09T14:25:33;0.75;;;0.30;;
35444;SDS011;21562;49.476;6.086;2023-05-09T14:27:59;3.03;;;1.25;;
35444;SDS011;21562;49.476;6.086;2023-05-09T14:30:25;1.40;;;0.88;;
35444;SDS011;21562;49.476;6.086;2023-05-09T14:32:50;1.75;;;0.70;;
35444;SDS011;21562;49.476;6.086;2023-05-09T14:35:16;3.72;;;0.43;;
35444;SDS011;21562;49.476;6.086;2023-05-09T14:37:42;8.05;;;3.00;;
35444;SDS011;21562;49.476;6.086;2023-05-09T14:40:08;3.60;;;1.27;;
35444;SDS011;21562;49.476;6.086;2023-05-09T14:42:34;25.65;;;12.90;;
35444;SDS011;21562;49.476;6.086;2023-05-09T14:45:00;0.70;;;0.70;;
35444;SDS011;21562;49.476;6.086;2023-05-09T14:47:26;2.10;;;1.13;;
35444;SDS011;21562;49.476;6.086;2023-05-09T14:49:52;17.92;;;9.90;;
35444;SDS011;21562;49.476;6.086;2023-05-09T14:52:17;18.35;;;10.48;;
35444;SDS011;21562;49.476;6.086;2023-05-09T14:54:43;6.70;;;3.30;;
35444;SDS011;21562;49.476;6.086;2023-05-09T14:57:08;4.25;;;1.73;;
35444;SDS011;21562;49.476;6.086;2023-05-09T14:59:34;1.55;;;0.70;;
35444;SDS011;21562;49.476;6.086;2023-05-09T15:02:00;1.95;;;0.85;;
35444;SDS011;21562;49.476;6.086;2023-05-09T15:04:26;6.57;;;2.67;;
35444;SDS011;21562;49.476;6.086;2023-05-09T15:06:54;3.28;;;0.98;;
35444;SDS011;21562;49.476;6.086;2023-05-09T15:09:20;3.13;;;1.98;;
35444;SDS011;21562;49.476;6.086;2023-05-09T15:11:46;9.52;;;4.47;;
35444;SDS011;21562;49.476;6.086;2023-05-09T15:14:12;8.35;;;3.35;;
35444;SDS011;21562;49.476;6.086;2023-05-09T15:16:38;4.20;;;1.60;;
35444;SDS011;21562;49.476;6.086;2023-05-09T15:19:04;9.50;;;3.70;;
35444;SDS011;21562;49.476;6.086;2023-05-09T15:21:30;6.57;;;2.40;;